createdAt,value
2022-12-01T00:01:02.793Z,-0.59
2022-12-01T00:03:33.335Z,-0.55
2022-12-01T00:05:59.693Z,-0.56
2022-12-01T00:08:26.450Z,-0.64
2022-12-01T00:10:53.656Z,-0.55
2022-12-01T00:13:19.947Z,-0.55
2022-12-01T00:15:46.259Z,-0.55
2022-12-01T00:18:12.813Z,-0.56
2022-12-01T00:20:40.336Z,-0.59
2022-12-01T00:23:06.617Z,-0.57
2022-12-01T00:25:33.147Z,-0.47
2022-12-01T00:27:59.447Z,-0.59
2022-12-01T00:30:27.576Z,-0.68
2022-12-01T00:32:54.126Z,-0.64
2022-12-01T00:35:20.424Z,-0.54
2022-12-01T00:37:46.707Z,-0.56
2022-12-01T00:40:13.883Z,-0.64
2022-12-01T00:42:40.163Z,-0.61
2022-12-01T00:45:06.829Z,-0.53
2022-12-01T00:47:33.379Z,-0.61
2022-12-01T00:49:59.712Z,-0.70
2022-12-01T00:52:25.988Z,-0.62
2022-12-01T00:54:52.547Z,-0.66
2022-12-01T00:57:18.823Z,-0.48
2022-12-01T00:59:45.501Z,-0.53
2022-12-01T01:02:13.379Z,-0.58
2022-12-01T01:04:39.733Z,-0.56
2022-12-01T01:07:06.005Z,-0.55
2022-12-01T01:09:33.320Z,-0.45
2022-12-01T01:11:59.670Z,-0.47
2022-12-01T01:14:26.775Z,-0.41
2022-12-01T01:16:54.163Z,-0.42
2022-12-01T01:19:20.540Z,-0.41
2022-12-01T01:21:46.907Z,-0.51
2022-12-01T01:24:13.474Z,-0.56
2022-12-01T01:26:39.745Z,-0.45
2022-12-01T01:29:07.733Z,-0.56
2022-12-01T01:31:34.892Z,-0.76
2022-12-01T01:34:01.232Z,-0.65
2022-12-01T01:36:27.672Z,-0.60
2022-12-01T01:38:55.285Z,-0.56
2022-12-01T01:41:22.901Z,-0.56
2022-12-01T01:43:59.095Z,-0.55
2022-12-01T01:46:27.647Z,-0.53
2022-12-01T01:49:00.594Z,-0.56
2022-12-01T01:51:53.425Z,-0.68
2022-12-01T01:54:24.278Z,-0.44
2022-12-01T01:56:52.032Z,-0.38
2022-12-01T01:59:30.212Z,-0.43
2022-12-01T02:02:08.582Z,-0.51
2022-12-01T02:04:38.081Z,-0.45
2022-12-01T02:07:06.134Z,-0.44
2022-12-01T02:09:32.450Z,-0.34
2022-12-01T02:12:16.300Z,-0.43
2022-12-01T02:14:54.692Z,-0.55
2022-12-01T02:17:52.460Z,-0.50
2022-12-01T02:20:22.824Z,-0.43
2022-12-01T02:23:11.363Z,-0.57
2022-12-01T02:26:07.984Z,-0.48
2022-12-01T02:28:55.917Z,-0.49
2022-12-01T02:31:24.776Z,-0.49
2022-12-01T02:33:58.814Z,-0.53
2022-12-01T02:36:35.254Z,-0.59
2022-12-01T02:39:04.831Z,-0.43
2022-12-01T02:41:37.386Z,-0.43
2022-12-01T02:44:09.420Z,-0.50
2022-12-01T02:46:42.157Z,-0.46
2022-12-01T02:49:13.659Z,-0.40
2022-12-01T02:51:44.691Z,-0.39
2022-12-01T02:54:13.666Z,-0.36
2022-12-01T02:56:40.172Z,-0.40
2022-12-01T02:59:11.590Z,-0.37
2022-12-01T03:01:54.526Z,-0.42
2022-12-01T03:04:29.915Z,-0.27
2022-12-01T03:07:17.761Z,-0.27
2022-12-01T03:10:21.829Z,-0.23
2022-12-01T03:13:10.081Z,-0.23
2022-12-01T03:15:38.830Z,-0.16
2022-12-01T03:18:48.890Z,-0.21
2022-12-01T03:21:23.564Z,-0.23
2022-12-01T03:23:57.795Z,-0.34
2022-12-01T03:26:25.450Z,-0.24
2022-12-01T03:28:54.874Z,-0.29
2022-12-01T03:31:26.765Z,-0.27
2022-12-01T03:34:00.874Z,-0.38
2022-12-01T03:36:35.532Z,-0.32
2022-12-01T03:39:05.439Z,-0.28
2022-12-01T03:41:35.854Z,-0.24
2022-12-01T03:44:12.473Z,-0.18
2022-12-01T03:46:46.301Z,-0.20
2022-12-01T03:49:14.499Z,-0.28
2022-12-01T03:52:00.706Z,-0.35
2022-12-01T03:55:09.740Z,-0.28
2022-12-01T03:57:58.996Z,-0.33
2022-12-01T04:00:25.642Z,-0.30
2022-12-01T04:02:59.910Z,-0.25
2022-12-01T04:05:26.794Z,-0.16
2022-12-01T04:07:53.848Z,-0.27
2022-12-01T04:10:20.239Z,-0.23
2022-12-01T04:12:46.513Z,-0.38
2022-12-01T04:15:14.523Z,-0.23
2022-12-01T04:17:43.551Z,-0.30
2022-12-01T04:20:14.506Z,-0.30
2022-12-01T04:22:41.348Z,-0.36
2022-12-01T04:25:08.311Z,-0.35
2022-12-01T04:27:35.173Z,-0.31
2022-12-01T04:30:01.923Z,-0.39
2022-12-01T04:32:28.219Z,-0.28
2022-12-01T04:34:54.549Z,-0.22
2022-12-01T04:37:21.333Z,-0.22
2022-12-01T04:39:48.094Z,-0.30
2022-12-01T04:42:14.609Z,-0.35
2022-12-01T04:44:41.194Z,-0.26
2022-12-01T04:47:07.599Z,-0.28
2022-12-01T04:49:35.262Z,-0.35
2022-12-01T04:52:01.844Z,-0.28
2022-12-01T04:54:28.326Z,-0.27
2022-12-01T04:56:54.687Z,-0.29
2022-12-01T04:59:21.307Z,-0.36
2022-12-01T05:01:48.336Z,-0.34
2022-12-01T05:04:15.479Z,-0.29
2022-12-01T05:06:42.319Z,-0.26
2022-12-01T05:09:16.907Z,-0.39
2022-12-01T05:11:44.219Z,-0.45
2022-12-01T05:14:10.527Z,-0.38
2022-12-01T05:16:36.909Z,-0.38
2022-12-01T05:19:23.716Z,-0.27
2022-12-01T05:21:51.162Z,-0.33
2022-12-01T05:24:18.578Z,-0.26
2022-12-01T05:26:45.014Z,-0.25
2022-12-01T05:29:12.084Z,-0.40
2022-12-01T05:31:39.895Z,-0.22
2022-12-01T05:34:07.212Z,-0.12
2022-12-01T05:36:33.800Z,-0.10
2022-12-01T05:39:00.403Z,-0.05
2022-12-01T05:41:26.705Z,-0.16
2022-12-01T05:43:53.054Z,-0.07
2022-12-01T05:46:19.708Z,-0.14
2022-12-01T05:48:46.593Z,-0.12
2022-12-01T05:51:14.600Z,-0.16
2022-12-01T05:53:41.265Z,-0.17
2022-12-01T05:56:08.322Z,-0.02
2022-12-01T05:58:35.283Z,0.05
2022-12-01T06:01:02.593Z,-0.04
2022-12-01T06:03:29.392Z,0.02
2022-12-01T06:05:55.712Z,-0.03
2022-12-01T06:08:21.982Z,-0.05
2022-12-01T06:10:48.583Z,-0.02
2022-12-01T06:13:14.906Z,0.00
2022-12-01T06:15:41.288Z,-0.01
2022-12-01T06:18:07.976Z,0.07
2022-12-01T06:20:34.296Z,-0.01
2022-12-01T06:23:00.695Z,0.08
2022-12-01T06:25:27.323Z,0.07
2022-12-01T06:27:58.747Z,-0.11
2022-12-01T06:30:26.064Z,0.05
2022-12-01T06:32:52.702Z,0.18
2022-12-01T06:35:20.573Z,0.05
2022-12-01T06:37:47.127Z,0.24
2022-12-01T06:40:14.170Z,0.18
2022-12-01T06:42:40.633Z,0.24
2022-12-01T06:45:07.958Z,0.31
2022-12-01T06:47:35.056Z,0.40
2022-12-01T06:50:02.283Z,0.46
2022-12-01T06:52:28.668Z,0.49
2022-12-01T06:54:56.722Z,0.56
2022-12-01T06:57:23.551Z,0.55
2022-12-01T06:59:50.697Z,0.66
2022-12-01T07:02:18.112Z,0.68
2022-12-01T07:04:44.472Z,0.55
2022-12-01T07:07:12.113Z,0.80
2022-12-01T07:09:39.287Z,0.95
2022-12-01T07:12:05.862Z,1.00
2022-12-01T07:14:32.223Z,1.06
2022-12-01T07:16:59.403Z,1.10
2022-12-01T07:19:26.613Z,1.00
2022-12-01T07:21:53.000Z,1.24
2022-12-01T07:24:19.669Z,1.25
2022-12-01T07:26:45.976Z,1.38
2022-12-01T07:29:12.522Z,1.33
2022-12-01T07:31:39.389Z,1.24
2022-12-01T07:34:06.158Z,1.56
2022-12-01T07:36:32.554Z,1.41
2022-12-01T07:38:59.741Z,1.67
2022-12-01T07:41:26.018Z,1.73
2022-12-01T07:43:52.326Z,1.76
2022-12-01T07:46:23.832Z,1.79
2022-12-01T07:48:50.697Z,1.91
2022-12-01T07:51:21.704Z,2.02
2022-12-01T07:53:50.863Z,2.12
2022-12-01T07:56:20.057Z,2.07
2022-12-01T07:58:46.587Z,2.41
2022-12-01T08:01:20.512Z,2.55
2022-12-01T08:03:49.633Z,2.62
2022-12-01T08:06:17.415Z,2.96
2022-12-01T08:08:43.811Z,3.73
2022-12-01T08:11:13.162Z,4.83
2022-12-01T08:13:40.065Z,5.64
2022-12-01T08:16:08.610Z,6.79
2022-12-01T08:18:36.252Z,7.30
2022-12-01T08:21:02.815Z,7.32
2022-12-01T08:23:29.131Z,8.39
2022-12-01T08:25:57.559Z,8.45
2022-12-01T08:28:25.670Z,8.72
2022-12-01T08:30:52.036Z,8.36
2022-12-01T08:33:28.862Z,9.27
2022-12-01T08:36:07.357Z,8.29
2022-12-01T08:38:43.345Z,8.90
2022-12-01T08:41:10.210Z,8.88
2022-12-01T08:43:57.374Z,8.52
2022-12-01T08:46:26.213Z,8.68
2022-12-01T08:48:55.109Z,9.71
2022-12-01T08:51:21.814Z,9.30
2022-12-01T08:53:49.895Z,10.13
2022-12-01T08:56:20.517Z,10.31
2022-12-01T08:58:47.163Z,9.94
2022-12-01T09:01:16.227Z,9.41
2022-12-01T09:03:46.079Z,8.83
2022-12-01T09:06:20.209Z,8.99
2022-12-01T09:08:47.478Z,9.98
2022-12-01T09:11:16.228Z,10.07
2022-12-01T09:13:43.583Z,9.68
2022-12-01T09:16:15.031Z,9.83
2022-12-01T09:18:41.902Z,8.71
2022-12-01T09:21:25.671Z,8.02
2022-12-01T09:23:52.863Z,7.69
2022-12-01T09:26:19.821Z,7.72
2022-12-01T09:28:48.015Z,8.35
2022-12-01T09:31:16.707Z,9.14
2022-12-01T09:33:43.099Z,9.22
2022-12-01T09:36:10.202Z,9.11
2022-12-01T09:38:37.740Z,9.45
2022-12-01T09:41:29.177Z,10.19
2022-12-01T09:44:22.869Z,9.96
2022-12-01T09:46:59.154Z,10.00
2022-12-01T09:49:35.290Z,11.04
2022-12-01T09:52:01.840Z,11.65
2022-12-01T09:54:29.554Z,12.42
2022-12-01T09:56:57.155Z,11.25
2022-12-01T09:59:26.216Z,10.53
2022-12-01T10:01:56.284Z,9.25
2022-12-01T10:04:36.434Z,8.65
2022-12-01T10:07:14.261Z,8.73
2022-12-01T10:09:46.487Z,8.91
2022-12-01T10:12:18.169Z,10.75
2022-12-01T10:14:47.393Z,11.07
2022-12-01T10:17:16.996Z,11.33
2022-12-01T10:20:19.468Z,11.10
2022-12-01T10:22:46.061Z,10.07
2022-12-01T10:25:23.983Z,9.45
2022-12-01T10:27:56.262Z,9.06
2022-12-01T10:30:24.079Z,8.07
2022-12-01T10:32:58.269Z,7.59
2022-12-01T10:35:29.235Z,7.62
2022-12-01T10:38:01.089Z,7.43
2022-12-01T10:40:28.108Z,7.46
2022-12-01T10:42:54.979Z,6.84
2022-12-01T10:45:24.214Z,6.80
2022-12-01T10:48:10.642Z,6.90
2022-12-01T10:50:38.020Z,6.62
2022-12-01T10:53:04.795Z,6.62
2022-12-01T10:55:35.411Z,6.45
2022-12-01T10:58:09.398Z,6.08
2022-12-01T11:03:30.947Z,6.15
2022-12-01T11:05:59.274Z,6.01
2022-12-01T11:08:34.875Z,6.14
2022-12-01T11:11:01.699Z,6.28
2022-12-01T11:13:31.476Z,6.06
2022-12-01T11:15:59.842Z,6.04
2022-12-01T11:18:34.947Z,5.89
2022-12-01T11:21:27.703Z,5.83
2022-12-01T11:23:56.150Z,5.94
2022-12-01T11:26:31.285Z,5.82
2022-12-01T11:29:01.985Z,6.02
2022-12-01T11:31:39.846Z,6.04
2022-12-01T11:34:35.429Z,5.87
2022-12-01T11:37:04.402Z,5.78
2022-12-01T11:39:39.107Z,5.86
2022-12-01T11:42:22.844Z,5.59
2022-12-01T11:44:56.822Z,5.45
2022-12-01T11:47:25.894Z,5.60
2022-12-01T11:50:00.916Z,5.70
2022-12-01T11:52:33.629Z,5.28
2022-12-01T11:55:01.508Z,5.42
2022-12-01T11:57:35.051Z,5.51
2022-12-01T12:00:10.867Z,5.53
2022-12-01T12:02:50.190Z,5.52
2022-12-01T12:05:25.273Z,5.49
2022-12-01T12:08:22.659Z,5.49
2022-12-01T12:11:05.032Z,5.51
2022-12-01T12:13:51.681Z,5.50
2022-12-01T12:16:30.342Z,5.35
2022-12-01T12:19:10.333Z,5.53
2022-12-01T12:21:54.811Z,5.52
2022-12-01T12:24:55.171Z,5.46
2022-12-01T12:27:43.499Z,5.56
2022-12-01T12:30:20.685Z,5.68
2022-12-01T12:32:52.753Z,5.90
2022-12-01T12:35:43.750Z,5.87
2022-12-01T12:38:36.604Z,5.67
2022-12-01T12:41:29.794Z,5.85
2022-12-01T12:44:40.556Z,5.73
2022-12-01T12:47:19.176Z,5.77
2022-12-01T12:50:03.405Z,5.66
2022-12-01T12:52:33.901Z,5.40
2022-12-01T12:55:04.489Z,5.36
2022-12-01T12:57:34.281Z,5.26
2022-12-01T13:00:05.866Z,5.24
2022-12-01T13:02:53.303Z,5.16
2022-12-01T13:05:26.199Z,5.14
2022-12-01T13:08:04.022Z,4.99
2022-12-01T13:10:39.899Z,4.95
2022-12-01T13:13:23.347Z,4.83
2022-12-01T13:15:51.654Z,4.71
2022-12-01T13:18:26.865Z,4.65
2022-12-01T13:20:54.755Z,4.55
2022-12-01T13:23:22.031Z,4.46
2022-12-01T13:25:51.914Z,4.36
2022-12-01T13:28:26.222Z,4.32
2022-12-01T13:31:10.943Z,4.28
2022-12-01T13:33:40.139Z,4.25
2022-12-01T13:39:05.202Z,4.12
2022-12-01T13:41:39.717Z,4.10
2022-12-01T13:44:19.999Z,4.23
2022-12-01T13:46:46.839Z,4.24
2022-12-01T13:49:39.731Z,4.23
2022-12-01T13:52:21.528Z,4.23
2022-12-01T13:55:09.448Z,4.20
2022-12-01T13:57:55.020Z,4.18
2022-12-01T14:00:28.655Z,4.09
2022-12-01T14:03:20.452Z,3.98
2022-12-01T14:05:53.257Z,3.86
2022-12-01T14:08:27.998Z,3.74
2022-12-01T14:11:20.420Z,3.60
2022-12-01T14:13:54.400Z,3.43
2022-12-01T14:16:20.938Z,3.33
2022-12-01T14:18:57.793Z,3.12
2022-12-01T14:21:44.834Z,3.06
2022-12-01T14:24:36.331Z,2.87
2022-12-01T14:27:04.014Z,2.79
2022-12-01T14:29:31.943Z,2.66
2022-12-01T14:32:00.982Z,2.60
2022-12-01T14:34:30.246Z,2.54
2022-12-01T14:37:03.937Z,2.51
2022-12-01T14:39:44.889Z,2.48
2022-12-01T14:42:11.389Z,2.47
2022-12-01T14:44:44.902Z,2.39
2022-12-01T14:47:11.945Z,2.37
2022-12-01T14:49:43.693Z,2.28
2022-12-01T14:52:21.256Z,2.26
2022-12-01T14:54:49.267Z,2.27
2022-12-01T14:57:18.484Z,2.21
2022-12-01T14:59:44.955Z,2.10
2022-12-01T15:02:12.463Z,2.05
2022-12-01T15:05:06.457Z,1.93
2022-12-01T15:07:40.628Z,1.93
2022-12-01T15:10:16.653Z,1.81
2022-12-01T15:12:43.452Z,1.66
2022-12-01T15:15:23.469Z,1.54
2022-12-01T15:17:51.660Z,1.59
2022-12-01T15:20:37.221Z,1.60
2022-12-01T15:23:14.702Z,1.53
2022-12-01T15:25:45.348Z,1.40
2022-12-01T15:28:22.355Z,1.46
2022-12-01T15:30:51.861Z,1.51
2022-12-01T15:33:28.969Z,1.31
2022-12-01T15:35:57.635Z,1.39
2022-12-01T15:38:30.468Z,1.40
2022-12-01T15:43:54.921Z,1.25
2022-12-01T15:46:27.918Z,1.24
2022-12-01T15:49:08.554Z,1.22
2022-12-01T15:51:35.379Z,1.16
2022-12-01T15:54:02.724Z,1.08
2022-12-01T15:56:32.197Z,1.16
2022-12-01T15:59:13.429Z,1.22
2022-12-01T16:01:42.180Z,1.28
2022-12-01T16:04:23.662Z,1.31
2022-12-01T16:06:59.170Z,1.30
2022-12-01T16:09:31.199Z,1.30
2022-12-01T16:12:09.596Z,1.33
2022-12-01T16:14:36.964Z,1.37
2022-12-01T16:17:04.729Z,1.37
2022-12-01T16:19:32.751Z,1.39
2022-12-01T16:22:11.520Z,1.38
2022-12-01T16:24:44.339Z,1.42
2022-12-01T16:27:24.367Z,1.41
2022-12-01T16:29:59.687Z,1.44
2022-12-01T16:32:40.582Z,1.47
2022-12-01T16:35:27.494Z,1.46
2022-12-01T16:37:55.149Z,1.46
2022-12-01T16:40:21.527Z,1.46
2022-12-01T16:42:49.860Z,1.40
2022-12-01T16:45:17.921Z,1.28
2022-12-01T16:47:46.104Z,1.41
2022-12-01T16:50:17.634Z,1.42
2022-12-01T16:52:45.324Z,1.39
2022-12-01T16:55:24.600Z,1.38
2022-12-01T16:57:51.178Z,1.34
2022-12-01T17:00:17.749Z,1.35
2022-12-01T17:02:44.345Z,1.32
2022-12-01T17:05:11.543Z,1.34
2022-12-01T17:07:38.000Z,1.28
2022-12-01T17:10:04.890Z,1.26
2022-12-01T17:12:31.483Z,1.12
2022-12-01T17:14:57.770Z,1.27
2022-12-01T17:17:24.045Z,1.25
2022-12-01T17:19:52.900Z,1.34
2022-12-01T17:22:19.190Z,1.14
2022-12-01T17:24:45.486Z,1.25
2022-12-01T17:27:12.058Z,1.30
2022-12-01T17:29:45.688Z,1.30
2022-12-01T17:32:13.770Z,1.33
2022-12-01T17:34:40.129Z,1.32
2022-12-01T17:37:06.399Z,1.28
2022-12-01T17:39:32.984Z,1.28
2022-12-01T17:41:59.342Z,1.25
2022-12-01T17:44:25.655Z,1.21
2022-12-01T17:46:52.313Z,1.24
2022-12-01T17:49:18.710Z,1.24
2022-12-01T17:51:45.094Z,1.22
2022-12-01T17:54:11.691Z,1.25
2022-12-01T17:56:37.980Z,1.27
2022-12-01T17:59:04.292Z,1.24
2022-12-01T18:01:31.006Z,1.26
2022-12-01T18:03:58.936Z,1.25
2022-12-01T18:06:26.805Z,1.26
2022-12-01T18:08:53.630Z,1.24
2022-12-01T18:11:20.791Z,1.18
2022-12-01T18:13:49.117Z,1.12
2022-12-01T18:16:16.851Z,1.28
2022-12-01T18:18:43.681Z,1.27
2022-12-01T18:21:12.740Z,1.25
2022-12-01T18:23:39.418Z,1.27
2022-12-01T18:26:15.814Z,1.07
2022-12-01T18:28:43.098Z,1.25
2022-12-01T18:31:11.728Z,1.26
2022-12-01T18:33:40.431Z,1.13
2022-12-01T18:36:12.631Z,1.26
2022-12-01T18:38:39.736Z,1.21
2022-12-01T18:41:06.111Z,1.15
2022-12-01T18:43:32.754Z,1.14
2022-12-01T18:45:59.758Z,1.04
2022-12-01T18:48:26.982Z,1.11
2022-12-01T18:50:59.094Z,1.00
2022-12-01T18:53:26.072Z,1.12
2022-12-01T18:55:52.356Z,1.10
2022-12-01T18:58:18.736Z,1.12
2022-12-01T19:00:45.733Z,1.09
2022-12-01T19:03:12.118Z,1.07
2022-12-01T19:05:39.343Z,1.13
2022-12-01T19:08:06.111Z,1.15
2022-12-01T19:10:32.797Z,1.09
2022-12-01T19:12:59.527Z,1.14
2022-12-01T19:15:26.205Z,1.16
2022-12-01T19:17:52.593Z,1.19
2022-12-01T19:20:18.878Z,1.22
2022-12-01T19:22:46.170Z,1.17
2022-12-01T19:25:13.528Z,1.23
2022-12-01T19:27:40.335Z,1.24
2022-12-01T19:30:07.657Z,1.26
2022-12-01T19:32:34.457Z,1.26
2022-12-01T19:35:00.775Z,1.15
2022-12-01T19:37:29.071Z,1.27
2022-12-01T19:39:55.367Z,1.26
2022-12-01T19:42:21.685Z,1.26
2022-12-01T19:44:48.725Z,1.22
2022-12-01T19:47:19.198Z,1.25
2022-12-01T19:49:48.689Z,1.25
2022-12-01T19:52:15.006Z,1.24
2022-12-01T19:54:41.288Z,1.24
2022-12-01T19:57:07.862Z,1.06
2022-12-01T19:59:34.111Z,1.20
2022-12-01T20:02:00.453Z,1.20
2022-12-01T20:04:27.065Z,1.17
2022-12-01T20:06:53.336Z,1.18
2022-12-01T20:09:19.575Z,1.16
2022-12-01T20:11:46.156Z,1.03
2022-12-01T20:14:12.551Z,1.15
2022-12-01T20:16:39.004Z,1.15
2022-12-01T20:19:06.114Z,1.16
2022-12-01T20:21:42.134Z,1.13
2022-12-01T20:24:12.536Z,1.11
2022-12-01T20:26:50.549Z,1.10
2022-12-01T20:29:20.752Z,1.11
2022-12-01T20:31:48.080Z,0.97
2022-12-01T20:34:20.321Z,1.09
2022-12-01T20:36:47.090Z,1.06
2022-12-01T20:39:14.399Z,0.91
2022-12-01T20:41:41.583Z,1.08
2022-12-01T20:44:10.059Z,1.06
2022-12-01T20:46:37.482Z,0.95
2022-12-01T20:49:04.704Z,1.05
2022-12-01T20:51:34.120Z,1.03
2022-12-01T20:54:26.824Z,1.00
2022-12-01T20:56:48.188Z,0.98
2022-12-01T20:59:14.491Z,0.94
2022-12-01T21:01:40.905Z,0.82
2022-12-01T21:04:08.622Z,0.85
2022-12-01T21:06:34.970Z,0.86
2022-12-01T21:09:02.430Z,0.83
2022-12-01T21:11:53.291Z,0.80
2022-12-01T21:14:36.034Z,0.79
2022-12-01T21:17:09.985Z,0.82
2022-12-01T21:19:50.357Z,0.83
2022-12-01T21:22:16.945Z,0.84
2022-12-01T21:24:44.345Z,0.86
2022-12-01T21:27:15.651Z,0.89
2022-12-01T21:29:45.273Z,0.92
2022-12-01T21:32:25.558Z,0.88
2022-12-01T21:34:53.523Z,0.98
2022-12-01T21:37:22.656Z,1.01
2022-12-01T21:39:51.073Z,1.04
2022-12-01T21:42:23.057Z,1.05
2022-12-01T21:44:49.704Z,1.09
2022-12-01T21:47:23.791Z,1.10
2022-12-01T21:49:52.684Z,1.12
2022-12-01T21:52:25.095Z,1.12
2022-12-01T21:54:51.941Z,1.12
2022-12-01T21:57:42.965Z,1.12
2022-12-01T22:00:36.828Z,1.15
2022-12-01T22:03:09.153Z,1.14
2022-12-01T22:05:37.144Z,1.15
2022-12-01T22:08:21.982Z,1.17
2022-12-01T22:11:03.072Z,1.17
2022-12-01T22:13:41.934Z,1.16
2022-12-01T22:16:17.145Z,1.17
2022-12-01T22:18:53.231Z,1.16
2022-12-01T22:21:28.552Z,1.17
2022-12-01T22:24:06.272Z,1.18
2022-12-01T22:26:32.873Z,1.17
2022-12-01T22:29:00.016Z,1.16
2022-12-01T22:31:26.854Z,1.18
2022-12-01T22:34:02.663Z,1.17
2022-12-01T22:36:31.677Z,1.13
2022-12-01T22:38:58.159Z,1.17
2022-12-01T22:41:24.621Z,1.16
2022-12-01T22:43:55.912Z,1.15
2022-12-01T22:46:32.393Z,1.16
2022-12-01T22:49:02.107Z,1.14
2022-12-01T22:51:38.070Z,1.08
2022-12-01T22:54:16.661Z,1.11
2022-12-01T22:56:49.223Z,1.10
2022-12-01T22:59:19.618Z,1.09
2022-12-01T23:01:53.674Z,1.09
2022-12-01T23:04:27.045Z,1.01
2022-12-01T23:07:15.053Z,1.08
2022-12-01T23:09:43.215Z,1.07
2022-12-01T23:12:12.486Z,0.93
2022-12-01T23:14:41.581Z,1.07
2022-12-01T23:17:14.259Z,1.07
2022-12-01T23:19:40.562Z,1.06
2022-12-01T23:22:06.855Z,1.07
2022-12-01T23:24:34.173Z,1.06
2022-12-01T23:27:00.615Z,1.06
2022-12-01T23:29:26.918Z,1.04
2022-12-01T23:31:53.570Z,1.06
2022-12-01T23:34:20.001Z,1.06
2022-12-01T23:36:47.013Z,1.06
2022-12-01T23:39:15.396Z,1.06
2022-12-01T23:41:49.143Z,1.04
2022-12-01T23:44:31.096Z,1.04
2022-12-01T23:46:58.040Z,1.04
2022-12-01T23:49:28.935Z,0.94
2022-12-01T23:51:57.670Z,1.07
2022-12-01T23:54:29.940Z,1.07
2022-12-01T23:56:58.960Z,1.08
2022-12-01T23:59:25.386Z,0.95
